sensor_id;sensor_type;location;lat;lon;timestamp;pressure;altitude;pressure_sealevel;temperature
61703;BMP280;47622;47.726;3.298;2022-10-04T00:01:05;99770.53;;;8.57
61703;BMP280;47622;47.726;3.298;2022-10-04T00:03:45;99752.78;;;8.54
61703;BMP280;47622;47.726;3.298;2022-10-04T00:06:20;99756.38;;;8.74
61703;BMP280;47622;47.726;3.298;2022-10-04T00:09:23;99749.31;;;8.69
61703;BMP280;47622;47.726;3.298;2022-10-04T00:11:53;99741.25;;;8.61
61703;BMP280;47622;47.726;3.298;2022-10-04T00:16:50;99747.78;;;8.58
61703;BMP280;47622;47.726;3.298;2022-10-04T00:24:24;99734.97;;;8.56
61703;BMP280;47622;47.726;3.298;2022-10-04T00:37:02;99721.47;;;8.44
61703;BMP280;47622;47.726;3.298;2022-10-04T00:39:40;99722.00;;;8.41
61703;BMP280;47622;47.726;3.298;2022-10-04T00:45:12;99716.22;;;8.44
61703;BMP280;47622;47.726;3.298;2022-10-04T00:50:26;99717.81;;;8.35
61703;BMP280;47622;47.726;3.298;2022-10-04T00:52:56;99710.53;;;8.32
61703;BMP280;47622;47.726;3.298;2022-10-04T00:55:33;99706.88;;;8.28
61703;BMP280;47622;47.726;3.298;2022-10-04T00:58:02;99715.00;;;8.26
61703;BMP280;47622;47.726;3.298;2022-10-04T01:00:30;99709.53;;;8.23
61703;BMP280;47622;47.726;3.298;2022-10-04T01:03:11;99716.81;;;8.26
61703;BMP280;47622;47.726;3.298;2022-10-04T01:05:49;99714.72;;;8.33
61703;BMP280;47622;47.726;3.298;2022-10-04T01:08:26;99708.41;;;8.39
61703;BMP280;47622;47.726;3.298;2022-10-04T01:11:09;99701.38;;;8.35
61703;BMP280;47622;47.726;3.298;2022-10-04T01:18:38;99692.50;;;8.36
61703;BMP280;47622;47.726;3.298;2022-10-04T01:21:08;99692.72;;;8.44
61703;BMP280;47622;47.726;3.298;2022-10-04T01:23:49;99691.97;;;8.28
61703;BMP280;47622;47.726;3.298;2022-10-04T01:28:59;99674.97;;;8.41
61703;BMP280;47622;47.726;3.298;2022-10-04T01:31:30;99675.44;;;8.48
61703;BMP280;47622;47.726;3.298;2022-10-04T01:33:56;99673.38;;;8.40
61703;BMP280;47622;47.726;3.298;2022-10-04T01:36:24;99682.81;;;8.36
61703;BMP280;47622;47.726;3.298;2022-10-04T01:38:50;99672.31;;;8.46
61703;BMP280;47622;47.726;3.298;2022-10-04T01:41:20;99674.66;;;8.48
61703;BMP280;47622;47.726;3.298;2022-10-04T01:43:49;99660.91;;;8.32
61703;BMP280;47622;47.726;3.298;2022-10-04T01:46:24;99653.06;;;8.32
61703;BMP280;47622;47.726;3.298;2022-10-04T01:48:53;99659.56;;;8.35
61703;BMP280;47622;47.726;3.298;2022-10-04T01:51:21;99669.47;;;8.38
61703;BMP280;47622;47.726;3.298;2022-10-04T01:53:54;99656.69;;;8.36
61703;BMP280;47622;47.726;3.298;2022-10-04T01:56:26;99650.09;;;8.49
61703;BMP280;47622;47.726;3.298;2022-10-04T01:59:02;99644.03;;;8.58
61703;BMP280;47622;47.726;3.298;2022-10-04T02:01:52;99650.81;;;8.59
61703;BMP280;47622;47.726;3.298;2022-10-04T02:04:28;99649.88;;;8.35
61703;BMP280;47622;47.726;3.298;2022-10-04T02:06:56;99643.81;;;8.50
61703;BMP280;47622;47.726;3.298;2022-10-04T02:09:26;99644.53;;;8.55
61703;BMP280;47622;47.726;3.298;2022-10-04T02:11:54;99634.16;;;8.45
61703;BMP280;47622;47.726;3.298;2022-10-04T02:14:23;99636.22;;;8.53
61703;BMP280;47622;47.726;3.298;2022-10-04T02:16:50;99636.47;;;8.57
61703;BMP280;47622;47.726;3.298;2022-10-04T02:19:25;99633.19;;;8.36
61703;BMP280;47622;47.726;3.298;2022-10-04T02:21:53;99629.50;;;8.42
61703;BMP280;47622;47.726;3.298;2022-10-04T02:24:20;99631.06;;;8.43
61703;BMP280;47622;47.726;3.298;2022-10-04T02:26:50;99632.94;;;8.33
61703;BMP280;47622;47.726;3.298;2022-10-04T02:29:18;99643.41;;;8.27
61703;BMP280;47622;47.726;3.298;2022-10-04T02:31:45;99639.78;;;8.18
61703;BMP280;47622;47.726;3.298;2022-10-04T02:34:30;99631.97;;;8.13
61703;BMP280;47622;47.726;3.298;2022-10-04T02:36:56;99637.22;;;8.03
61703;BMP280;47622;47.726;3.298;2022-10-04T02:39:25;99634.09;;;8.11
61703;BMP280;47622;47.726;3.298;2022-10-04T02:42:19;99623.38;;;8.08
61703;BMP280;47622;47.726;3.298;2022-10-04T02:44:54;99622.63;;;7.97
61703;BMP280;47622;47.726;3.298;2022-10-04T02:47:39;99621.38;;;7.89
61703;BMP280;47622;47.726;3.298;2022-10-04T02:50:46;99617.13;;;8.04
61703;BMP280;47622;47.726;3.298;2022-10-04T02:53:45;99608.25;;;8.05
61703;BMP280;47622;47.726;3.298;2022-10-04T02:56:12;99609.84;;;8.00
61703;BMP280;47622;47.726;3.298;2022-10-04T02:58:39;99613.81;;;7.88
61703;BMP280;47622;47.726;3.298;2022-10-04T03:01:06;99625.56;;;7.75
61703;BMP280;47622;47.726;3.298;2022-10-04T03:03:33;99616.72;;;7.66
61703;BMP280;47622;47.726;3.298;2022-10-04T03:06:07;99619.28;;;7.71
61703;BMP280;47622;47.726;3.298;2022-10-04T03:08:43;99611.47;;;7.76
61703;BMP280;47622;47.726;3.298;2022-10-04T03:11:10;99616.41;;;7.83
61703;BMP280;47622;47.726;3.298;2022-10-04T03:13:39;99622.97;;;7.70
61703;BMP280;47622;47.726;3.298;2022-10-04T03:16:07;99620.88;;;7.72
61703;BMP280;47622;47.726;3.298;2022-10-04T03:18:34;99625.59;;;7.65
61703;BMP280;47622;47.726;3.298;2022-10-04T03:21:08;99624.84;;;7.54
61703;BMP280;47622;47.726;3.298;2022-10-04T03:23:36;99620.16;;;7.51
61703;BMP280;47622;47.726;3.298;2022-10-04T03:28:40;99623.25;;;7.63
61703;BMP280;47622;47.726;3.298;2022-10-04T03:31:06;99625.63;;;7.55
61703;BMP280;47622;47.726;3.298;2022-10-04T03:33:32;99623.00;;;7.55
61703;BMP280;47622;47.726;3.298;2022-10-04T03:35:58;99624.06;;;7.54
61703;BMP280;47622;47.726;3.298;2022-10-04T03:38:26;99618.34;;;7.57
61703;BMP280;47622;47.726;3.298;2022-10-04T03:41:01;99622.00;;;7.56
61703;BMP280;47622;47.726;3.298;2022-10-04T03:43:29;99611.00;;;7.54
61703;BMP280;47622;47.726;3.298;2022-10-04T03:46:00;99602.66;;;7.52
61703;BMP280;47622;47.726;3.298;2022-10-04T03:48:34;99608.66;;;7.52
61703;BMP280;47622;47.726;3.298;2022-10-04T03:51:04;99611.03;;;7.43
61703;BMP280;47622;47.726;3.298;2022-10-04T03:53:36;99608.41;;;7.38
61703;BMP280;47622;47.726;3.298;2022-10-04T03:56:21;99606.34;;;7.25
61703;BMP280;47622;47.726;3.298;2022-10-04T03:58:49;99593.84;;;7.07
61703;BMP280;47622;47.726;3.298;2022-10-04T04:01:39;99595.94;;;7.05
61703;BMP280;47622;47.726;3.298;2022-10-04T04:05:09;99596.97;;;6.89
61703;BMP280;47622;47.726;3.298;2022-10-04T04:07:16;99591.22;;;6.92
61703;BMP280;47622;47.726;3.298;2022-10-04T04:10:02;99600.34;;;6.89
61703;BMP280;47622;47.726;3.298;2022-10-04T04:12:50;99589.66;;;6.91
61703;BMP280;47622;47.726;3.298;2022-10-04T04:15:18;99583.94;;;7.04
61703;BMP280;47622;47.726;3.298;2022-10-04T04:17:46;99603.22;;;7.13
61703;BMP280;47622;47.726;3.298;2022-10-04T04:20:38;99603.75;;;7.00
61703;BMP280;47622;47.726;3.298;2022-10-04T04:25:48;99604.28;;;7.22
61703;BMP280;47622;47.726;3.298;2022-10-04T04:28:23;99609.22;;;7.13
61703;BMP280;47622;47.726;3.298;2022-10-04T04:30:55;99610.53;;;7.11
61703;BMP280;47622;47.726;3.298;2022-10-04T04:33:31;99604.03;;;7.19
61703;BMP280;47622;47.726;3.298;2022-10-04T04:36:04;99609.47;;;7.27
61703;BMP280;47622;47.726;3.298;2022-10-04T04:38:31;99611.56;;;7.35
61703;BMP280;47622;47.726;3.298;2022-10-04T04:41:07;99613.66;;;7.33
61703;BMP280;47622;47.726;3.298;2022-10-04T04:43:34;99604.78;;;7.29
61703;BMP280;47622;47.726;3.298;2022-10-04T04:46:01;99595.91;;;7.25
61703;BMP280;47622;47.726;3.298;2022-10-04T04:48:27;99586.78;;;7.07
61703;BMP280;47622;47.726;3.298;2022-10-04T04:50:56;99591.75;;;6.99
61703;BMP280;47622;47.726;3.298;2022-10-04T04:53:26;99591.75;;;6.89
61703;BMP280;47622;47.726;3.298;2022-10-04T04:56:04;99600.09;;;7.01
61703;BMP280;47622;47.726;3.298;2022-10-04T04:58:39;99596.19;;;7.13
61703;BMP280;47622;47.726;3.298;2022-10-04T05:03:37;99602.22;;;7.09
61703;BMP280;47622;47.726;3.298;2022-10-04T05:06:25;99590.22;;;6.98
61703;BMP280;47622;47.726;3.298;2022-10-04T05:08:49;99585.22;;;6.91
61703;BMP280;47622;47.726;3.298;2022-10-04T05:11:16;99591.75;;;6.78
61703;BMP280;47622;47.726;3.298;2022-10-04T05:13:50;99592.78;;;6.67
61703;BMP280;47622;47.726;3.298;2022-10-04T05:16:21;99590.66;;;6.64
61703;BMP280;47622;47.726;3.298;2022-10-04T05:19:01;99592.81;;;6.82
61703;BMP280;47622;47.726;3.298;2022-10-04T05:21:29;99593.84;;;6.97
61703;BMP280;47622;47.726;3.298;2022-10-04T05:23:57;99590.72;;;6.95
61703;BMP280;47622;47.726;3.298;2022-10-04T05:26:27;99582.88;;;7.00
61703;BMP280;47622;47.726;3.298;2022-10-04T05:28:58;99591.22;;;7.02
61703;BMP280;47622;47.726;3.298;2022-10-04T05:31:44;99591.50;;;6.85
61703;BMP280;47622;47.726;3.298;2022-10-04T05:34:22;99590.19;;;6.77
61703;BMP280;47622;47.726;3.298;2022-10-04T05:37:49;99592.81;;;6.93
61703;BMP280;47622;47.726;3.298;2022-10-04T05:42:53;99579.75;;;6.77
61703;BMP280;47622;47.726;3.298;2022-10-04T05:45:29;99590.16;;;6.67
61703;BMP280;47622;47.726;3.298;2022-10-04T05:47:57;99597.47;;;6.70
61703;BMP280;47622;47.726;3.298;2022-10-04T05:50:39;99594.63;;;6.77
61703;BMP280;47622;47.726;3.298;2022-10-04T05:53:30;99596.44;;;6.87
61703;BMP280;47622;47.726;3.298;2022-10-04T06:01:45;99593.81;;;7.12
61703;BMP280;47622;47.726;3.298;2022-10-04T06:05:07;99592.81;;;7.03
61703;BMP280;47622;47.726;3.298;2022-10-04T06:10:23;99591.78;;;7.09
61703;BMP280;47622;47.726;3.298;2022-10-04T06:13:18;99589.16;;;7.04
61703;BMP280;47622;47.726;3.298;2022-10-04T06:15:56;99596.44;;;6.92
61703;BMP280;47622;47.726;3.298;2022-10-04T06:21:30;99602.19;;;6.99
61703;BMP280;47622;47.726;3.298;2022-10-04T06:24:09;99594.09;;;7.05
61703;BMP280;47622;47.726;3.298;2022-10-04T06:26:44;99591.00;;;7.19
61703;BMP280;47622;47.726;3.298;2022-10-04T06:29:21;99596.44;;;7.22
61703;BMP280;47622;47.726;3.298;2022-10-04T06:32:09;99608.41;;;7.23
61703;BMP280;47622;47.726;3.298;2022-10-04T06:35:00;99602.69;;;7.41
61703;BMP280;47622;47.726;3.298;2022-10-04T06:50:59;99612.88;;;8.18
61703;BMP280;47622;47.726;3.298;2022-10-04T07:02:06;99625.69;;;8.98
61703;BMP280;47622;47.726;3.298;2022-10-04T07:13:36;99626.31;;;9.71
61703;BMP280;47622;47.726;3.298;2022-10-04T07:18:36;99630.38;;;9.83
61703;BMP280;47622;47.726;3.298;2022-10-04T07:21:10;99638.53;;;10.00
61703;BMP280;47622;47.726;3.298;2022-10-04T07:23:57;99645.59;;;10.23
61703;BMP280;47622;47.726;3.298;2022-10-04T07:26:32;99647.72;;;10.21
61703;BMP280;47622;47.726;3.298;2022-10-04T07:29:10;99654.72;;;10.26
61703;BMP280;47622;47.726;3.298;2022-10-04T07:32:06;99656.63;;;10.58
61703;BMP280;47622;47.726;3.298;2022-10-04T07:37:12;99662.44;;;10.92
61703;BMP280;47622;47.726;3.298;2022-10-04T07:39:42;99668.16;;;11.27
61703;BMP280;47622;47.726;3.298;2022-10-04T07:45:02;99679.34;;;11.74
61703;BMP280;47622;47.726;3.298;2022-10-04T07:47:30;99676.13;;;12.04
61703;BMP280;47622;47.726;3.298;2022-10-04T07:49:56;99682.75;;;12.38
61703;BMP280;47622;47.726;3.298;2022-10-04T08:01:16;99676.19;;;13.56
61703;BMP280;47622;47.726;3.298;2022-10-04T08:04:23;99674.28;;;14.30
61703;BMP280;47622;47.726;3.298;2022-10-04T08:07:03;99679.22;;;15.51
61703;BMP280;47622;47.726;3.298;2022-10-04T08:09:42;99668.81;;;16.63
61703;BMP280;47622;47.726;3.298;2022-10-04T08:18:04;99671.38;;;19.92
61703;BMP280;47622;47.726;3.298;2022-10-04T08:23:37;99684.88;;;21.51
61703;BMP280;47622;47.726;3.298;2022-10-04T08:35:12;99680.00;;;24.04
61703;BMP280;47622;47.726;3.298;2022-10-04T08:38:06;99692.06;;;25.29
61703;BMP280;47622;47.726;3.298;2022-10-04T08:44:10;99682.78;;;25.96
61703;BMP280;47622;47.726;3.298;2022-10-04T08:55:15;99691.09;;;27.71
61703;BMP280;47622;47.726;3.298;2022-10-04T08:58:11;99697.25;;;28.61
61703;BMP280;47622;47.726;3.298;2022-10-04T09:00:55;99701.25;;;28.14
61703;BMP280;47622;47.726;3.298;2022-10-04T09:15:20;99704.75;;;29.09
61703;BMP280;47622;47.726;3.298;2022-10-04T09:18:13;99717.38;;;29.32
61703;BMP280;47622;47.726;3.298;2022-10-04T09:21:07;99701.59;;;28.95
61703;BMP280;47622;47.726;3.298;2022-10-04T09:26:43;99701.75;;;26.64
61703;BMP280;47622;47.726;3.298;2022-10-04T09:29:26;99698.44;;;26.08
61703;BMP280;47622;47.726;3.298;2022-10-04T09:37:59;99687.34;;;29.10
61703;BMP280;47622;47.726;3.298;2022-10-04T10:00:38;99678.28;;;30.81
61703;BMP280;47622;47.726;3.298;2022-10-04T10:03:36;99681.75;;;30.27
61703;BMP280;47622;47.726;3.298;2022-10-04T10:06:25;99674.78;;;29.20
61703;BMP280;47622;47.726;3.298;2022-10-04T10:12:12;99692.28;;;30.92
61703;BMP280;47622;47.726;3.298;2022-10-04T10:17:42;99694.69;;;30.36
61703;BMP280;47622;47.726;3.298;2022-10-04T10:25:44;99697.50;;;28.87
61703;BMP280;47622;47.726;3.298;2022-10-04T10:39:47;99714.84;;;25.73
61703;BMP280;47622;47.726;3.298;2022-10-04T10:48:17;99711.88;;;23.15
61703;BMP280;47622;47.726;3.298;2022-10-04T10:51:08;99702.75;;;23.30
61703;BMP280;47622;47.726;3.298;2022-10-04T10:54:06;99702.72;;;23.16
61703;BMP280;47622;47.726;3.298;2022-10-04T11:02:28;99691.97;;;22.07
61703;BMP280;47622;47.726;3.298;2022-10-04T11:05:25;99691.53;;;22.04
61703;BMP280;47622;47.726;3.298;2022-10-04T11:32:57;99672.09;;;25.89
61703;BMP280;47622;47.726;3.298;2022-10-04T11:35:49;99678.69;;;25.74
61703;BMP280;47622;47.726;3.298;2022-10-04T11:38:26;99673.25;;;25.84
61703;BMP280;47622;47.726;3.298;2022-10-04T11:41:07;99661.53;;;24.87
61703;BMP280;47622;47.726;3.298;2022-10-04T11:52:25;99664.78;;;25.27
61703;BMP280;47622;47.726;3.298;2022-10-04T11:58:14;99659.88;;;25.15
61703;BMP280;47622;47.726;3.298;2022-10-04T12:09:55;99653.97;;;24.11
61703;BMP280;47622;47.726;3.298;2022-10-04T12:15:46;99641.25;;;24.72
61703;BMP280;47622;47.726;3.298;2022-10-04T12:23:40;99624.88;;;23.92
61703;BMP280;47622;47.726;3.298;2022-10-04T12:29:03;99627.16;;;24.33
61703;BMP280;47622;47.726;3.298;2022-10-04T12:31:54;99628.66;;;24.44
61703;BMP280;47622;47.726;3.298;2022-10-04T12:34:52;99624.09;;;24.24
61703;BMP280;47622;47.726;3.298;2022-10-04T12:37:34;99617.22;;;23.87
61703;BMP280;47622;47.726;3.298;2022-10-04T12:40:27;99617.19;;;24.15
61703;BMP280;47622;47.726;3.298;2022-10-04T12:43:08;99608.78;;;23.85
61703;BMP280;47622;47.726;3.298;2022-10-04T12:46:07;99608.78;;;23.85
61703;BMP280;47622;47.726;3.298;2022-10-04T12:49:12;99596.53;;;23.84
61703;BMP280;47622;47.726;3.298;2022-10-04T12:54:47;99585.03;;;23.48
61703;BMP280;47622;47.726;3.298;2022-10-04T13:00:21;99568.19;;;23.62
61703;BMP280;47622;47.726;3.298;2022-10-04T13:05:21;99580.47;;;23.77
61703;BMP280;47622;47.726;3.298;2022-10-04T13:08:06;99578.56;;;23.77
61703;BMP280;47622;47.726;3.298;2022-10-04T13:16:55;99568.19;;;24.04
61703;BMP280;47622;47.726;3.298;2022-10-04T13:19:15;99578.16;;;23.72
61703;BMP280;47622;47.726;3.298;2022-10-04T13:22:27;99565.88;;;23.57
61703;BMP280;47622;47.726;3.298;2022-10-04T13:36:18;99592.13;;;22.98
61703;BMP280;47622;47.726;3.298;2022-10-04T13:38:58;99593.00;;;23.30
61703;BMP280;47622;47.726;3.298;2022-10-04T13:42:00;99582.69;;;23.29
61703;BMP280;47622;47.726;3.298;2022-10-04T13:47:46;99583.38;;;23.08
61703;BMP280;47622;47.726;3.298;2022-10-04T13:51:00;99586.44;;;23.10
61703;BMP280;47622;47.726;3.298;2022-10-04T13:59:26;99576.25;;;22.54
61703;BMP280;47622;47.726;3.298;2022-10-04T14:21:18;99557.88;;;22.45
61703;BMP280;47622;47.726;3.298;2022-10-04T14:49:47;99546.59;;;21.67
61703;BMP280;47622;47.726;3.298;2022-10-04T15:06:53;99550.19;;;21.45
61703;BMP280;47622;47.726;3.298;2022-10-04T15:20:23;99523.88;;;21.06
61703;BMP280;47622;47.726;3.298;2022-10-04T15:23:09;99513.81;;;20.96
61703;BMP280;47622;47.726;3.298;2022-10-04T15:25:44;99518.81;;;20.68
61703;BMP280;47622;47.726;3.298;2022-10-04T15:30:49;99521.19;;;20.46
61703;BMP280;47622;47.726;3.298;2022-10-04T15:36:23;99505.19;;;20.46
61703;BMP280;47622;47.726;3.298;2022-10-04T15:38:53;99502.94;;;20.48
61703;BMP280;47622;47.726;3.298;2022-10-04T15:41:44;99497.75;;;20.33
61703;BMP280;47622;47.726;3.298;2022-10-04T15:44:38;99504.59;;;20.30
61703;BMP280;47622;47.726;3.298;2022-10-04T15:55:29;99528.72;;;19.91
61703;BMP280;47622;47.726;3.298;2022-10-04T15:58:11;99538.66;;;19.94
61703;BMP280;47622;47.726;3.298;2022-10-04T16:06:27;99527.66;;;19.96
61703;BMP280;47622;47.726;3.298;2022-10-04T16:14:49;99536.81;;;19.99
61703;BMP280;47622;47.726;3.298;2022-10-04T16:22:32;99534.63;;;19.58
61703;BMP280;47622;47.726;3.298;2022-10-04T16:33:27;99543.00;;;18.83
61703;BMP280;47622;47.726;3.298;2022-10-04T16:36:12;99546.22;;;18.57
61703;BMP280;47622;47.726;3.298;2022-10-04T16:38:48;99543.91;;;18.40
61703;BMP280;47622;47.726;3.298;2022-10-04T16:41:38;99539.50;;;18.29
61703;BMP280;47622;47.726;3.298;2022-10-04T16:44:22;99542.81;;;18.10
61703;BMP280;47622;47.726;3.298;2022-10-04T16:46:55;99537.38;;;17.90
61703;BMP280;47622;47.726;3.298;2022-10-04T16:49:37;99533.03;;;17.82
61703;BMP280;47622;47.726;3.298;2022-10-04T16:52:45;99539.47;;;17.69
61703;BMP280;47622;47.726;3.298;2022-10-04T16:55:40;99543.31;;;17.56
61703;BMP280;47622;47.726;3.298;2022-10-04T17:06:29;99538.94;;;17.08
61703;BMP280;47622;47.726;3.298;2022-10-04T17:11:39;99541.50;;;16.80
61703;BMP280;47622;47.726;3.298;2022-10-04T17:14:29;99537.31;;;16.67
61703;BMP280;47622;47.726;3.298;2022-10-04T17:17:00;99537.41;;;16.46
61703;BMP280;47622;47.726;3.298;2022-10-04T17:19:41;99537.41;;;16.34
61703;BMP280;47622;47.726;3.298;2022-10-04T17:25:32;99558.06;;;16.07
61703;BMP280;47622;47.726;3.298;2022-10-04T17:28:27;99556.16;;;15.95
61703;BMP280;47622;47.726;3.298;2022-10-04T17:38:47;99566.13;;;15.36
61703;BMP280;47622;47.726;3.298;2022-10-04T17:44:27;99573.38;;;15.18
61703;BMP280;47622;47.726;3.298;2022-10-04T17:52:53;99584.00;;;14.72
61703;BMP280;47622;47.726;3.298;2022-10-04T17:55:51;99581.41;;;14.54
61703;BMP280;47622;47.726;3.298;2022-10-04T17:58:41;99593.66;;;14.50
61703;BMP280;47622;47.726;3.298;2022-10-04T18:01:34;99587.31;;;14.51
61703;BMP280;47622;47.726;3.298;2022-10-04T18:04:29;99586.69;;;14.54
61703;BMP280;47622;47.726;3.298;2022-10-04T18:07:00;99582.19;;;14.46
61703;BMP280;47622;47.726;3.298;2022-10-04T18:12:29;99586.56;;;14.42
61703;BMP280;47622;47.726;3.298;2022-10-04T18:18:13;99585.38;;;14.31
61703;BMP280;47622;47.726;3.298;2022-10-04T18:23:28;99580.56;;;13.90
61703;BMP280;47622;47.726;3.298;2022-10-04T18:26:04;99584.13;;;13.85
61703;BMP280;47622;47.726;3.298;2022-10-04T18:28:30;99590.03;;;13.82
61703;BMP280;47622;47.726;3.298;2022-10-04T18:31:14;99591.44;;;13.80
61703;BMP280;47622;47.726;3.298;2022-10-04T18:33:46;99580.69;;;13.59
61703;BMP280;47622;47.726;3.298;2022-10-04T18:36:26;99587.03;;;13.49
61703;BMP280;47622;47.726;3.298;2022-10-04T18:39:21;99588.44;;;13.47
61703;BMP280;47622;47.726;3.298;2022-10-04T18:42:06;99592.16;;;13.46
61703;BMP280;47622;47.726;3.298;2022-10-04T18:44:46;99589.03;;;13.35
61703;BMP280;47622;47.726;3.298;2022-10-04T18:47:16;99596.63;;;13.36
61703;BMP280;47622;47.726;3.298;2022-10-04T18:49:52;99597.22;;;13.33
61703;BMP280;47622;47.726;3.298;2022-10-04T18:58:08;99599.66;;;13.21
61703;BMP280;47622;47.726;3.298;2022-10-04T19:07:29;99606.88;;;13.07
61703;BMP280;47622;47.726;3.298;2022-10-04T19:12:50;99603.47;;;12.98
61703;BMP280;47622;47.726;3.298;2022-10-04T19:15:28;99606.22;;;12.93
61703;BMP280;47622;47.726;3.298;2022-10-04T19:26:54;99620.00;;;12.67
61703;BMP280;47622;47.726;3.298;2022-10-04T19:32:10;99627.47;;;12.74
61703;BMP280;47622;47.726;3.298;2022-10-04T19:37:51;99620.56;;;12.78
61703;BMP280;47622;47.726;3.298;2022-10-04T19:40:27;99624.72;;;12.79
61703;BMP280;47622;47.726;3.298;2022-10-04T19:43:13;99616.50;;;12.80
61703;BMP280;47622;47.726;3.298;2022-10-04T19:48:27;99616.66;;;12.75
61703;BMP280;47622;47.726;3.298;2022-10-04T19:51:09;99606.84;;;12.67
61703;BMP280;47622;47.726;3.298;2022-10-04T19:53:41;99605.44;;;12.61
61703;BMP280;47622;47.726;3.298;2022-10-04T19:56:19;99601.22;;;12.60
61703;BMP280;47622;47.726;3.298;2022-10-04T19:59:06;99602.72;;;12.53
61703;BMP280;47622;47.726;3.298;2022-10-04T20:01:35;99604.91;;;12.51
61703;BMP280;47622;47.726;3.298;2022-10-04T20:04:13;99605.50;;;12.47
61703;BMP280;47622;47.726;3.298;2022-10-04T20:06:59;99598.50;;;12.43
61703;BMP280;47622;47.726;3.298;2022-10-04T20:12:38;99606.47;;;12.29
61703;BMP280;47622;47.726;3.298;2022-10-04T20:15:12;99602.56;;;12.27
61703;BMP280;47622;47.726;3.298;2022-10-04T20:17:42;99595.56;;;12.22
61703;BMP280;47622;47.726;3.298;2022-10-04T20:20:08;99594.09;;;12.30
61703;BMP280;47622;47.726;3.298;2022-10-04T20:30:56;99587.91;;;12.12
61703;BMP280;47622;47.726;3.298;2022-10-04T20:36:00;99601.03;;;12.12
61703;BMP280;47622;47.726;3.298;2022-10-04T20:39:04;99600.56;;;12.10
61703;BMP280;47622;47.726;3.298;2022-10-04T20:44:41;99604.16;;;12.14
61703;BMP280;47622;47.726;3.298;2022-10-04T20:47:22;99604.75;;;12.11
61703;BMP280;47622;47.726;3.298;2022-10-04T20:49:52;99618.78;;;12.06
61703;BMP280;47622;47.726;3.298;2022-10-04T20:52:24;99606.81;;;12.00
61703;BMP280;47622;47.726;3.298;2022-10-04T20:54:51;99612.69;;;11.97
61703;BMP280;47622;47.726;3.298;2022-10-04T20:57:19;99616.22;;;11.93
61703;BMP280;47622;47.726;3.298;2022-10-04T20:59:52;99610.72;;;11.89
61703;BMP280;47622;47.726;3.298;2022-10-04T21:02:23;99620.78;;;11.87
61703;BMP280;47622;47.726;3.298;2022-10-04T21:04:51;99629.84;;;11.81
61703;BMP280;47622;47.726;3.298;2022-10-04T21:07:25;99614.75;;;11.73
61703;BMP280;47622;47.726;3.298;2022-10-04T21:09:51;99629.28;;;11.70
61703;BMP280;47622;47.726;3.298;2022-10-04T21:15:02;99624.59;;;11.53
61703;BMP280;47622;47.726;3.298;2022-10-04T21:19:54;99638.41;;;11.45
61703;BMP280;47622;47.726;3.298;2022-10-04T21:24:54;99643.25;;;11.38
61703;BMP280;47622;47.726;3.298;2022-10-04T21:27:35;99639.75;;;11.29
61703;BMP280;47622;47.726;3.298;2022-10-04T21:30:19;99645.59;;;11.26
61703;BMP280;47622;47.726;3.298;2022-10-04T21:32:47;99647.72;;;11.24
61703;BMP280;47622;47.726;3.298;2022-10-04T21:35:12;99646.28;;;11.18
61703;BMP280;47622;47.726;3.298;2022-10-04T21:37:38;99643.03;;;11.21
61703;BMP280;47622;47.726;3.298;2022-10-04T21:40:05;99647.50;;;11.20
61703;BMP280;47622;47.726;3.298;2022-10-04T21:42:31;99643.66;;;11.18
61703;BMP280;47622;47.726;3.298;2022-10-04T21:44:56;99640.03;;;11.14
61703;BMP280;47622;47.726;3.298;2022-10-04T21:47:22;99649.25;;;11.11
61703;BMP280;47622;47.726;3.298;2022-10-04T21:49:49;99643.81;;;11.08
61703;BMP280;47622;47.726;3.298;2022-10-04T21:52:16;99643.59;;;11.04
61703;BMP280;47622;47.726;3.298;2022-10-04T21:54:43;99646.09;;;10.95
61703;BMP280;47622;47.726;3.298;2022-10-04T21:57:09;99654.47;;;10.98
61703;BMP280;47622;47.726;3.298;2022-10-04T21:59:35;99649.22;;;10.98
61703;BMP280;47622;47.726;3.298;2022-10-04T22:02:00;99655.53;;;10.96
61703;BMP280;47622;47.726;3.298;2022-10-04T22:04:26;99651.41;;;10.90
61703;BMP280;47622;47.726;3.298;2022-10-04T22:06:52;99647.84;;;10.86
61703;BMP280;47622;47.726;3.298;2022-10-04T22:09:18;99652.03;;;10.87
61703;BMP280;47622;47.726;3.298;2022-10-04T22:11:43;99656.94;;;10.89
61703;BMP280;47622;47.726;3.298;2022-10-04T22:14:09;99646.78;;;10.87
61703;BMP280;47622;47.726;3.298;2022-10-04T22:16:34;99646.84;;;10.82
61703;BMP280;47622;47.726;3.298;2022-10-04T22:19:00;99644.50;;;10.81
61703;BMP280;47622;47.726;3.298;2022-10-04T22:21:26;99636.16;;;10.79
61703;BMP280;47622;47.726;3.298;2022-10-04T22:23:51;99641.19;;;10.75
61703;BMP280;47622;47.726;3.298;2022-10-04T22:26:20;99645.38;;;10.76
61703;BMP280;47622;47.726;3.298;2022-10-04T22:28:51;99641.19;;;10.75
61703;BMP280;47622;47.726;3.298;2022-10-04T22:31:24;99642.75;;;10.76
61703;BMP280;47622;47.726;3.298;2022-10-04T22:33:50;99641.00;;;10.72
61703;BMP280;47622;47.726;3.298;2022-10-04T22:36:30;99642.75;;;10.76
61703;BMP280;47622;47.726;3.298;2022-10-04T22:41:37;99644.78;;;10.79
61703;BMP280;47622;47.726;3.298;2022-10-04T22:44:15;99643.53;;;10.77
61703;BMP280;47622;47.726;3.298;2022-10-04T22:46:44;99638.00;;;10.78
61703;BMP280;47622;47.726;3.298;2022-10-04T22:49:15;99635.94;;;10.75
61703;BMP280;47622;47.726;3.298;2022-10-04T22:51:42;99640.13;;;10.76
61703;BMP280;47622;47.726;3.298;2022-10-04T22:54:14;99644.31;;;10.77
61703;BMP280;47622;47.726;3.298;2022-10-04T22:56:40;99638.03;;;10.73
61703;BMP280;47622;47.726;3.298;2022-10-04T22:59:14;99645.84;;;10.78
61703;BMP280;47622;47.726;3.298;2022-10-04T23:01:41;99637.50;;;10.76
61703;BMP280;47622;47.726;3.298;2022-10-04T23:04:22;99639.53;;;10.79
61703;BMP280;47622;47.726;3.298;2022-10-04T23:06:49;99637.59;;;10.71
61703;BMP280;47622;47.726;3.298;2022-10-04T23:09:15;99639.19;;;10.67
61703;BMP280;47622;47.726;3.298;2022-10-04T23:11:41;99633.41;;;10.70
61703;BMP280;47622;47.726;3.298;2022-10-04T23:14:07;99634.19;;;10.71
61703;BMP280;47622;47.726;3.298;2022-10-04T23:16:33;99634.34;;;10.74
61703;BMP280;47622;47.726;3.298;2022-10-04T23:19:12;99633.41;;;10.70
61703;BMP280;47622;47.726;3.298;2022-10-04T23:21:43;99635.03;;;10.66
61703;BMP280;47622;47.726;3.298;2022-10-04T23:24:20;99632.19;;;10.62
61703;BMP280;47622;47.726;3.298;2022-10-04T23:26:49;99634.09;;;10.57
61703;BMP280;47622;47.726;3.298;2022-10-04T23:29:21;99630.78;;;10.51
61703;BMP280;47622;47.726;3.298;2022-10-04T23:31:48;99631.84;;;10.50